Time;durP1;ratioP1;P1;durP2;ratioP2;P2;SDS_P1;SDS_P2;PMS_P1;PMS_P2;Temp;Humidity;BMP_temperature;BMP_pressure;BME280_temperature;BME280_humidity;BME280_pressure;Samples;Min_cycle;Max_cycle;Signal;HPM_P1;HPM_P2
2023/11/10 00:03:27;;;;;;;;;;;;;;;20.27;39.00;94603.44;10452953;28;2537;-55
2023/11/10 00:08:28;;;;;;;;;;;;;;;20.25;38.77;94594.28;10476414;28;2584;-55
2023/11/10 00:13:30;;;;;;;;;;;;;;;20.23;39.01;94596.44;10484045;28;2742;-55
2023/11/10 00:18:31;;;;;;;;;;;;;;;20.21;39.04;94588.06;10470657;28;2625;-56
2023/11/10 00:23:31;;;;;;;;;;;;;;;20.20;39.19;94586.50;10474079;28;2604;-56
2023/11/10 00:28:32;;;;;;;;;;;;;;;20.17;38.74;94572.03;10480291;28;2604;-56
2023/11/10 00:33:32;;;;;;;;;;;;;;;20.16;38.87;94570.50;10484847;28;2679;-55
2023/11/10 00:38:32;;;;;;;;;;;;;;;20.15;39.13;94561.03;10477313;28;2645;-55
2023/11/10 00:43:32;;;;;;;;;;;;;;;20.12;38.99;94560.88;10470954;28;4887;-57
2023/11/10 00:48:33;;;;;;;;;;;;;;;20.09;39.20;94546.47;10485713;28;2620;-56
2023/11/10 00:53:33;;;;;;;;;;;;;;;20.08;39.23;94547.53;10473836;28;2677;-57
2023/11/10 00:58:34;;;;;;;;;;;;;;;20.07;39.31;94529.44;10471997;28;2681;-55
2023/11/10 01:03:34;;;;;;;;;;;;;;;20.04;39.71;94530.81;10462471;28;2671;-55
2023/11/10 01:08:34;;;;;;;;;;;;;;;20.03;39.57;94523.97;10471231;28;2638;-55
2023/11/10 01:13:35;;;;;;;;;;;;;;;20.02;39.65;94521.66;10463344;28;2581;-55
2023/11/10 01:18:35;;;;;;;;;;;;;;;19.99;39.82;94511.75;10480407;28;2684;-55
2023/11/10 01:23:35;;;;;;;;;;;;;;;19.97;39.64;94504.13;10477987;28;2609;-58
2023/11/10 01:28:37;;;;;;;;;;;;;;;19.94;40.13;94488.19;10485896;28;2739;-57
2023/11/10 01:33:38;;;;;;;;;;;;;;;19.93;39.70;94489.25;10463275;28;2636;-55
2023/11/10 01:38:40;;;;;;;;;;;;;;;19.90;40.05;94469.59;10479720;28;2667;-55
2023/11/10 01:43:40;;;;;;;;;;;;;;;19.90;39.89;94461.72;10478095;28;4769;-55
2023/11/10 01:48:40;;;;;;;;;;;;;;;19.88;39.83;94463.09;10478828;28;2734;-53
2023/11/10 01:53:40;;;;;;;;;;;;;;;19.86;39.89;94458.13;10477871;28;2695;-57
2023/11/10 01:58:43;;;;;;;;;;;;;;;19.85;39.91;94442.63;10478013;28;2656;-55
2023/11/10 02:03:43;;;;;;;;;;;;;;;19.82;39.90;94433.50;10479199;28;2617;-55
2023/11/10 02:08:43;;;;;;;;;;;;;;;19.81;39.97;94425.91;10476748;28;2764;-57
2023/11/10 02:13:44;;;;;;;;;;;;;;;19.79;40.11;94417.53;10479914;28;2578;-56
2023/11/10 02:18:44;;;;;;;;;;;;;;;19.77;40.15;94425.72;10477154;28;2738;-57
2023/11/10 02:23:45;;;;;;;;;;;;;;;19.76;40.00;94412.88;10462992;28;2537;-55
2023/11/10 02:28:45;;;;;;;;;;;;;;;19.74;39.92;94412.41;10464383;28;2752;-56
2023/11/10 02:33:46;;;;;;;;;;;;;;;19.72;40.16;94406.69;10484308;28;2670;-55
2023/11/10 02:38:46;;;;;;;;;;;;;;;19.70;39.87;94404.31;10475889;28;2530;-55
2023/11/10 02:43:46;;;;;;;;;;;;;;;19.70;40.10;94398.31;10482448;28;4835;-57
2023/11/10 02:48:47;;;;;;;;;;;;;;;19.67;40.44;94391.00;10471122;28;2910;-55
2023/11/10 02:53:47;;;;;;;;;;;;;;;19.67;40.06;94385.75;10481308;28;2638;-54
2023/11/10 02:58:47;;;;;;;;;;;;;;;19.64;40.13;94389.00;10473307;28;2619;-51
2023/11/10 03:03:48;;;;;;;;;;;;;;;19.63;40.00;94388.22;10474003;28;2568;-51
2023/11/10 03:08:48;;;;;;;;;;;;;;;19.63;40.20;94387.44;10476930;28;2576;-55
2023/11/10 03:13:48;;;;;;;;;;;;;;;19.60;40.10;94367.78;10475236;28;2571;-56
2023/11/10 03:18:49;;;;;;;;;;;;;;;19.60;39.86;94369.66;10470268;28;2697;-54
2023/11/10 03:23:50;;;;;;;;;;;;;;;19.58;39.87;94369.16;10468927;28;2584;-55
2023/11/10 03:28:50;;;;;;;;;;;;;;;19.56;40.24;94363.44;10476578;28;2652;-54
2023/11/10 03:33:51;;;;;;;;;;;;;;;19.55;40.17;94351.34;10479681;28;2676;-56
2023/11/10 03:38:51;;;;;;;;;;;;;;;19.53;40.07;94362.19;10469056;28;2701;-54
2023/11/10 03:43:51;;;;;;;;;;;;;;;19.52;40.38;94375.59;10474934;28;4737;-55
2023/11/10 03:48:51;;;;;;;;;;;;;;;19.51;39.84;94384.56;10474633;28;2640;-54
2023/11/10 03:53:52;;;;;;;;;;;;;;;19.49;39.78;94384.88;10471986;28;2664;-56
2023/11/10 03:58:52;;;;;;;;;;;;;;;19.48;40.08;94391.97;10478023;28;2550;-55
2023/11/10 04:03:52;;;;;;;;;;;;;;;19.45;40.10;94392.56;10477019;28;2641;-55
2023/11/10 04:08:53;;;;;;;;;;;;;;;19.43;40.09;94389.47;10472241;28;2577;-55
2023/11/10 04:13:53;;;;;;;;;;;;;;;19.42;40.11;94411.56;10478294;28;2608;-56
2023/11/10 04:18:53;;;;;;;;;;;;;;;19.41;40.20;94396.88;10461115;28;2574;-54
2023/11/10 04:23:54;;;;;;;;;;;;;;;19.41;39.89;94388.22;10471499;28;2588;-54
2023/11/10 04:28:54;;;;;;;;;;;;;;;19.39;39.96;94382.50;10475912;28;2985;-54
2023/11/10 04:33:54;;;;;;;;;;;;;;;19.38;39.76;94391.44;10487489;28;2610;-53
2023/11/10 04:38:55;;;;;;;;;;;;;;;19.37;39.94;94382.78;10466709;28;2672;-55
2023/11/10 04:43:55;;;;;;;;;;;;;;;19.35;39.76;94361.28;10466190;28;4824;-56
2023/11/10 04:48:56;;;;;;;;;;;;;;;19.35;39.86;94363.16;10492495;28;2805;-57
2023/11/10 04:53:56;;;;;;;;;;;;;;;19.34;39.64;94365.00;10492235;28;2644;-54
2023/11/10 04:58:56;;;;;;;;;;;;;;;19.33;39.90;94373.94;10481169;28;2841;-56
2023/11/10 05:03:57;;;;;;;;;;;;;;;19.32;39.87;94372.38;10492238;28;2655;-56
2023/11/10 05:08:57;;;;;;;;;;;;;;;19.33;40.00;94375.78;10491606;28;2604;-54
2023/11/10 05:13:57;;;;;;;;;;;;;;;19.33;39.52;94381.81;10485853;28;2557;-53
2023/11/10 05:18:58;;;;;;;;;;;;;;;19.39;39.33;94383.25;10479027;28;2631;-55
2023/11/10 05:23:58;;;;;;;;;;;;;;;19.44;39.08;94384.97;10481816;28;2658;-54
2023/11/10 05:29:00;;;;;;;;;;;;;;;19.49;39.11;94385.63;10484529;28;2729;-55
2023/11/10 05:34:00;;;;;;;;;;;;;;;19.56;38.86;94392.34;10489125;28;2631;-56
2023/11/10 05:39:01;;;;;;;;;;;;;;;19.64;38.95;94397.63;10489518;28;2629;-56
2023/11/10 05:44:03;;;;;;;;;;;;;;;19.68;38.82;94401.22;10481154;28;4815;-55
2023/11/10 05:49:05;;;;;;;;;;;;;;;19.76;38.73;94410.25;10490760;28;2642;-54
2023/11/10 05:54:05;;;;;;;;;;;;;;;19.81;38.52;94410.13;10482951;28;2556;-55
2023/11/10 05:59:05;;;;;;;;;;;;;;;19.86;38.58;94407.38;10461375;28;2628;-55
2023/11/10 06:04:07;;;;;;;;;;;;;;;19.88;38.26;94407.84;10481225;28;2621;-55
2023/11/10 06:09:07;;;;;;;;;;;;;;;19.91;38.08;94415.13;10462564;28;2636;-56
2023/11/10 06:14:10;;;;;;;;;;;;;;;19.97;38.05;94409.44;10485055;28;2521;-55
2023/11/10 06:19:10;;;;;;;;;;;;;;;20.01;37.96;94409.63;10473186;28;2579;-53
2023/11/10 06:24:10;;;;;;;;;;;;;;;20.04;38.11;94414.28;10474751;28;2583;-55
2023/11/10 06:29:12;;;;;;;;;;;;;;;20.08;38.10;94420.50;10460916;28;2587;-55
2023/11/10 06:34:12;;;;;;;;;;;;;;;20.10;38.30;94428.84;10454771;28;2632;-56
2023/11/10 06:39:13;;;;;;;;;;;;;;;20.11;38.49;94433.81;10454921;28;2617;-57
2023/11/10 06:44:18;;;;;;;;;;;;;;;20.15;38.37;94432.13;10476177;28;4788;-53
2023/11/10 06:49:19;;;;;;;;;;;;;;;20.19;38.60;94427.88;10474589;28;2675;-56
2023/11/10 06:54:20;;;;;;;;;;;;;;;20.30;38.55;94438.13;10466332;28;2644;-55
2023/11/10 06:59:20;;;;;;;;;;;;;;;20.32;38.74;94435.97;10454236;28;2694;-55
2023/11/10 07:04:23;;;;;;;;;;;;;;;20.31;38.47;94440.44;10473314;28;2575;-53
2023/11/10 07:09:26;;;;;;;;;;;;;;;20.35;38.25;94440.63;10475075;28;2514;-54
2023/11/10 07:14:27;;;;;;;;;;;;;;;20.38;37.98;94446.03;10457619;28;2614;-55
2023/11/10 07:19:28;;;;;;;;;;;;;;;20.38;37.94;94438.16;10474637;28;2572;-55
2023/11/10 07:24:29;;;;;;;;;;;;;;;20.42;38.02;94439.13;10481132;28;2681;-55
2023/11/10 07:29:29;;;;;;;;;;;;;;;20.42;38.12;94446.22;10481961;28;2681;-51
2023/11/10 07:34:29;;;;;;;;;;;;;;;20.42;37.94;94441.75;10476059;28;2709;-55
2023/11/10 07:39:32;;;;;;;;;;;;;;;20.45;38.28;94445.59;10471299;28;2806;-56
2023/11/10 07:44:32;;;;;;;;;;;;;;;20.43;38.24;94440.66;10476096;28;4800;-54
2023/11/10 07:49:33;;;;;;;;;;;;;;;20.44;37.75;94450.13;10473013;28;2656;-55
2023/11/10 07:54:33;;;;;;;;;;;;;;;20.45;38.40;94456.13;10468964;28;2620;-55
2023/11/10 07:59:34;;;;;;;;;;;;;;;20.42;37.90;94462.81;10467917;28;2575;-56
2023/11/10 08:04:36;;;;;;;;;;;;;;;20.45;37.87;94472.72;10470968;28;2560;-56
2023/11/10 08:09:36;;;;;;;;;;;;;;;20.43;37.72;94459.09;10474291;28;2524;-53
2023/11/10 08:14:36;;;;;;;;;;;;;;;20.45;37.82;94466.66;10472833;28;2583;-56
2023/11/10 08:19:37;;;;;;;;;;;;;;;20.43;37.96;94474.88;10468051;28;2683;-55
2023/11/10 08:24:38;;;;;;;;;;;;;;;20.42;37.94;94473.34;10471770;28;2529;-55
2023/11/10 08:29:39;;;;;;;;;;;;;;;20.40;38.32;94472.88;10466816;28;2570;-54
2023/11/10 08:34:39;;;;;;;;;;;;;;;20.38;38.25;94475.00;10469100;28;2640;-55
2023/11/10 08:39:39;;;;;;;;;;;;;;;20.36;38.14;94479.03;10473345;28;2640;-56
2023/11/10 08:44:42;;;;;;;;;;;;;;;20.32;38.47;94489.38;10472509;28;4823;-56
2023/11/10 08:49:44;;;;;;;;;;;;;;;20.30;38.69;94494.16;10469343;28;2541;-56
2023/11/10 08:54:44;;;;;;;;;;;;;;;20.28;38.20;94497.09;10471272;28;2740;-54
2023/11/10 08:59:44;;;;;;;;;;;;;;;20.22;38.50;94486.97;10469401;28;2537;-56
2023/11/10 09:04:47;;;;;;;;;;;;;;;20.21;38.77;94493.34;10470897;28;2738;-53
2023/11/10 09:09:49;;;;;;;;;;;;;;;20.16;38.60;94478.41;10474442;28;2618;-53
2023/11/10 09:14:50;;;;;;;;;;;;;;;20.16;38.66;94485.53;10488830;28;2629;-54
2023/11/10 09:19:51;;;;;;;;;;;;;;;20.16;38.80;94488.16;10459767;28;2679;-54
2023/11/10 09:24:51;;;;;;;;;;;;;;;20.17;39.27;94482.59;10486972;28;2568;-59
2023/11/10 09:29:52;;;;;;;;;;;;;;;20.16;39.00;94477.63;10481071;28;2584;-59
2023/11/10 09:34:52;;;;;;;;;;;;;;;20.16;38.37;94475.00;10502434;28;2609;-59
2023/11/10 09:39:53;;;;;;;;;;;;;;;20.18;38.44;94480.75;10473037;28;2629;-60
2023/11/10 09:44:53;;;;;;;;;;;;;;;20.21;39.03;94480.19;10468205;28;4920;-59
2023/11/10 09:49:54;;;;;;;;;;;;;;;20.23;38.58;94470.13;10466959;28;2655;-59
2023/11/10 09:54:54;;;;;;;;;;;;;;;20.26;38.36;94461.63;10465479;28;2846;-59
2023/11/10 09:59:55;;;;;;;;;;;;;;;20.30;38.71;94469.72;10456221;28;2644;-59
2023/11/10 10:04:56;;;;;;;;;;;;;;;20.31;38.30;94461.50;10478133;28;2673;-59
2023/11/10 10:09:56;;;;;;;;;;;;;;;20.34;38.37;94460.88;10457750;28;3029;-60
2023/11/10 10:14:56;;;;;;;;;;;;;;;20.38;38.03;94464.47;10477247;28;2643;-57
2023/11/10 10:20:13;;;;;;;;;;;;;;;20.45;38.43;94467.44;10474358;28;2561;-58
2023/11/10 10:25:14;;;;;;;;;;;;;;;20.48;38.14;94450.28;10478223;28;2540;-59
2023/11/10 10:30:14;;;;;;;;;;;;;;;20.56;38.47;94446.91;10463328;28;2840;-57
2023/11/10 10:35:15;;;;;;;;;;;;;;;20.59;38.62;94441.81;10461745;28;2656;-59
2023/11/10 10:40:15;;;;;;;;;;;;;;;20.65;38.77;94435.31;10471191;28;3084;-59
2023/11/10 10:45:15;;;;;;;;;;;;;;;20.66;38.94;94436.88;10480353;28;4851;-59
2023/11/10 10:50:16;;;;;;;;;;;;;;;20.68;38.70;94426.81;10469568;28;2692;-60
2023/11/10 10:55:16;;;;;;;;;;;;;;;20.67;38.76;94421.88;10471388;28;2644;-60
2023/11/10 11:00:17;;;;;;;;;;;;;;;20.67;38.53;94422.63;10478357;28;2538;-59
2023/11/10 11:05:36;;;;;;;;;;;;;;;20.69;38.73;94414.44;10476047;28;2627;-60
2023/11/10 11:10:53;;;;;;;;;;;;;;;20.68;38.70;94408.38;10476584;28;2976;-60
2023/11/10 11:16:12;;;;;;;;;;;;;;;20.69;38.18;94409.94;10459199;28;2597;-59
2023/11/10 11:21:13;;;;;;;;;;;;;;;20.73;38.47;94421.41;10472382;28;2617;-60
2023/11/10 11:26:14;;;;;;;;;;;;;;;20.75;39.16;94421.88;10459717;28;2577;-60
2023/11/10 11:31:15;;;;;;;;;;;;;;;20.78;38.64;94420.47;10473388;28;2548;-60
2023/11/10 11:36:16;;;;;;;;;;;;;;;20.76;39.30;94415.53;10460293;28;2662;-59
2023/11/10 11:41:18;;;;;;;;;;;;;;;20.77;39.30;94417.06;10453580;28;2536;-59
2023/11/10 11:46:18;;;;;;;;;;;;;;;20.78;38.83;94418.63;10458171;28;5362;-59
2023/11/10 11:51:20;;;;;;;;;;;;;;;20.77;39.17;94424.97;10471956;28;2648;-60
2023/11/10 11:56:20;;;;;;;;;;;;;;;20.78;38.78;94421.25;10457146;28;2697;-59
2023/11/10 12:01:20;;;;;;;;;;;;;;;20.78;38.83;94421.25;10468210;28;2792;-59
2023/11/10 12:06:24;;;;;;;;;;;;;;;20.78;39.55;94415.22;10471465;28;2559;-59
2023/11/10 12:11:24;;;;;;;;;;;;;;;20.76;38.63;94415.53;10474158;28;2682;-59
2023/11/10 12:16:25;;;;;;;;;;;;;;;20.74;39.26;94409.78;10467431;28;2571;-59
2023/11/10 12:21:27;;;;;;;;;;;;;;;20.76;39.37;94405.00;10483424;28;2581;-59
2023/11/10 12:26:28;;;;;;;;;;;;;;;20.77;39.08;94406.53;10473948;28;2546;-60
2023/11/10 12:31:29;;;;;;;;;;;;;;;20.77;39.46;94403.16;10454137;28;2571;-60
2023/11/10 12:36:38;;;;;;;;;;;;;;;20.78;40.02;94399.41;10465812;28;2667;-60
2023/11/10 12:41:38;;;;;;;;;;;;;;;20.79;39.63;94401.75;10452954;28;2627;-60
2023/11/10 12:46:50;;;;;;;;;;;;;;;20.80;38.77;94395.41;10466990;28;4678;-61
2023/11/10 12:51:51;;;;;;;;;;;;;;;20.81;38.86;94389.03;10475431;28;2585;-60
2023/11/10 12:56:52;;;;;;;;;;;;;;;20.86;39.96;94393.38;10477824;28;2654;-59
2023/11/10 13:01:52;;;;;;;;;;;;;;;20.88;40.00;94386.75;10476091;28;3013;-59
2023/11/10 13:06:54;;;;;;;;;;;;;;;20.91;38.88;94375.59;10481349;28;2600;-59
2023/11/10 13:11:55;;;;;;;;;;;;;;;20.94;39.17;94371.56;10476089;28;2572;-60
2023/11/10 13:16:55;;;;;;;;;;;;;;;20.97;38.88;94384.13;10478697;28;2622;-61
2023/11/10 13:21:55;;;;;;;;;;;;;;;20.99;39.01;94377.47;10477910;28;2516;-60
2023/11/10 13:26:56;;;;;;;;;;;;;;;21.04;38.52;94373.94;10479623;28;2596;-60
2023/11/10 13:31:56;;;;;;;;;;;;;;;21.08;38.69;94385.41;10482244;28;2561;-60
2023/11/10 13:36:57;;;;;;;;;;;;;;;21.10;39.16;94377.19;10460542;28;2618;-59
2023/11/10 13:41:57;;;;;;;;;;;;;;;21.11;38.94;94379.50;10446285;28;2569;-59
2023/11/10 13:46:57;;;;;;;;;;;;;;;21.15;39.13;94374.38;10481237;28;4789;-59
2023/11/10 13:51:57;;;;;;;;;;;;;;;21.20;38.56;94376.88;10475848;28;2536;-58
2023/11/10 13:56:59;;;;;;;;;;;;;;;21.22;38.40;94378.13;10474905;28;2682;-58
2023/11/10 14:01:59;;;;;;;;;;;;;;;21.21;37.91;94378.41;10473270;28;2747;-58
2023/11/10 14:06:59;;;;;;;;;;;;;;;21.18;38.04;94390.38;10487239;28;2553;-58
2023/11/10 14:11:59;;;;;;;;;;;;;;;21.20;37.98;94388.22;10462728;28;2609;-58
2023/11/10 14:17:01;;;;;;;;;;;;;;;21.15;38.52;94388.34;10475842;28;2602;-57
2023/11/10 14:22:05;;;;;;;;;;;;;;;21.17;38.29;94388.03;10467791;28;2533;-59
2023/11/10 14:27:06;;;;;;;;;;;;;;;21.18;38.01;94389.59;10478643;28;2696;-59
2023/11/10 14:32:09;;;;;;;;;;;;;;;21.16;38.19;94397.81;10473554;28;2694;-59
2023/11/10 14:37:10;;;;;;;;;;;;;;;21.18;37.90;94395.66;10473122;28;2540;-59
2023/11/10 14:42:10;;;;;;;;;;;;;;;21.18;37.86;94389.59;10483162;28;4808;-58
2023/11/10 14:47:18;;;;;;;;;;;;;;;21.16;37.91;94379.38;10470452;28;2682;-59
2023/11/10 14:52:20;;;;;;;;;;;;;;;21.15;37.56;94384.94;10469287;28;2660;-59
2023/11/10 14:57:20;;;;;;;;;;;;;;;21.13;37.51;94385.25;10472539;28;2598;-59
2023/11/10 15:02:20;;;;;;;;;;;;;;;21.16;37.62;94386.50;10471636;28;2596;-59
2023/11/10 15:07:21;;;;;;;;;;;;;;;21.12;38.18;94378.44;10470131;28;2553;-59
2023/11/10 15:12:21;;;;;;;;;;;;;;;21.12;38.21;94394.25;10481906;28;2636;-59
2023/11/10 15:17:21;;;;;;;;;;;;;;;21.11;38.24;94403.22;10474150;28;2628;-59
2023/11/10 15:22:21;;;;;;;;;;;;;;;21.11;37.86;94392.69;10460485;28;2601;-59
2023/11/10 15:27:22;;;;;;;;;;;;;;;21.11;38.04;94395.31;10474695;28;2602;-59
2023/11/10 15:32:22;;;;;;;;;;;;;;;21.13;37.88;94385.25;10472113;28;2560;-59
2023/11/10 15:37:24;;;;;;;;;;;;;;;21.13;38.19;94384.47;10476674;28;2561;-60
2023/11/10 15:42:24;;;;;;;;;;;;;;;21.14;37.42;94388.66;10472724;28;4575;-59
2023/11/10 15:47:24;;;;;;;;;;;;;;;21.13;37.65;94392.38;10472582;28;2670;-59
2023/11/10 15:52:25;;;;;;;;;;;;;;;21.08;38.77;94395.16;10467692;28;2622;-59
2023/11/10 15:57:26;;;;;;;;;;;;;;;21.15;37.87;94406.00;10452847;28;2552;-59
2023/11/10 16:02:26;;;;;;;;;;;;;;;21.13;37.67;94400.28;10470224;28;2857;-59
2023/11/10 16:07:26;;;;;;;;;;;;;;;21.14;37.78;94396.56;10452661;28;2652;-59
2023/11/10 16:12:28;;;;;;;;;;;;;;;21.14;37.51;94400.00;10468704;28;2559;-57
2023/11/10 16:17:28;;;;;;;;;;;;;;;21.14;37.46;94407.88;10476216;28;2616;-59
2023/11/10 16:22:30;;;;;;;;;;;;;;;21.13;38.76;94416.09;10476033;28;2679;-58
2023/11/10 16:27:30;;;;;;;;;;;;;;;21.16;38.21;94433.94;10447623;28;2624;-59
2023/11/10 16:32:31;;;;;;;;;;;;;;;21.16;38.21;94433.94;10469174;28;2605;-59
2023/11/10 16:37:31;;;;;;;;;;;;;;;21.14;37.94;94428.97;10453209;28;2622;-59
2023/11/10 16:42:31;;;;;;;;;;;;;;;21.13;38.82;94431.88;10470472;28;2663;-58
2023/11/10 16:47:32;;;;;;;;;;;;;;;21.14;38.08;94436.88;10472925;28;2653;-59
2023/11/10 16:52:32;;;;;;;;;;;;;;;21.13;38.04;94437.94;10442026;28;2586;-59
2023/11/10 16:57:33;;;;;;;;;;;;;;;21.12;39.00;94433.78;10467335;28;2636;-58
2023/11/10 17:02:34;;;;;;;;;;;;;;;21.12;38.87;94435.63;10463003;28;3191;-58
2023/11/10 17:07:36;;;;;;;;;;;;;;;21.13;38.54;94445.06;10471306;28;2680;-58
2023/11/10 17:12:39;;;;;;;;;;;;;;;21.12;38.93;94438.25;10458494;28;2644;-59
2023/11/10 17:17:39;;;;;;;;;;;;;;;21.11;38.88;94431.44;10467668;28;2683;-58
2023/11/10 17:22:39;;;;;;;;;;;;;;;21.10;38.06;94435.16;10474083;28;2651;-58
2023/11/10 17:27:40;;;;;;;;;;;;;;;21.06;38.34;94430.50;10472256;28;2524;-58
2023/11/10 17:32:41;;;;;;;;;;;;;;;21.06;37.38;94441.03;10472813;28;2620;-58
2023/11/10 17:37:41;;;;;;;;;;;;;;;21.05;37.69;94447.41;10479388;28;2604;-56
2023/11/10 17:42:42;;;;;;;;;;;;;;;21.05;37.82;94443.97;10463438;28;4875;-58
2023/11/10 17:47:43;;;;;;;;;;;;;;;21.03;38.06;94439.03;10476766;28;2660;-58
2023/11/10 17:52:43;;;;;;;;;;;;;;;21.03;37.72;94444.28;10477434;28;2529;-57
2023/11/10 17:57:44;;;;;;;;;;;;;;;21.01;38.04;94445.66;10480195;28;2663;-58
2023/11/10 18:02:44;;;;;;;;;;;;;;;21.01;37.42;94449.06;10483836;28;2593;-58
2023/11/10 18:07:44;;;;;;;;;;;;;;;21.01;37.70;94451.69;10468734;28;2557;-58
2023/11/10 18:12:45;;;;;;;;;;;;;;;20.98;38.30;94459.41;10484768;28;2619;-58
2023/11/10 18:17:47;;;;;;;;;;;;;;;21.01;37.45;94454.34;10486666;28;2616;-60
2023/11/10 18:22:47;;;;;;;;;;;;;;;21.01;37.70;94456.19;10457381;28;2616;-58
2023/11/10 18:27:48;;;;;;;;;;;;;;;21.00;37.67;94465.16;10459760;28;2606;-59
2023/11/10 18:32:48;;;;;;;;;;;;;;;20.98;37.68;94468.09;10476329;28;2682;-58
2023/11/10 18:37:49;;;;;;;;;;;;;;;20.99;37.49;94472.31;10478506;28;3128;-59
2023/11/10 18:42:51;;;;;;;;;;;;;;;20.99;37.61;94467.03;10467141;28;4840;-59
2023/11/10 18:47:51;;;;;;;;;;;;;;;21.00;37.71;94467.78;10478804;28;2624;-58
2023/11/10 18:52:52;;;;;;;;;;;;;;;20.99;37.59;94467.03;10467930;28;2615;-58
2023/11/10 18:57:52;;;;;;;;;;;;;;;20.98;37.76;94462.84;10475983;28;2815;-58
2023/11/10 19:02:53;;;;;;;;;;;;;;;21.01;37.59;94464.09;10462260;28;2708;-59
2023/11/10 19:07:53;;;;;;;;;;;;;;;21.08;38.49;94474.22;10473530;28;2631;-58
2023/11/10 19:12:53;;;;;;;;;;;;;;;21.15;37.21;94477.16;10475284;28;2638;-59
2023/11/10 19:17:54;;;;;;;;;;;;;;;21.21;36.58;94479.34;10478035;28;2637;-59
2023/11/10 19:22:54;;;;;;;;;;;;;;;21.25;36.69;94476.84;10466180;28;2627;-58
2023/11/10 19:27:54;;;;;;;;;;;;;;;21.32;36.91;94485.88;10467610;28;2737;-58
2023/11/10 19:32:54;;;;;;;;;;;;;;;21.34;36.57;94478.44;10497836;28;2412;-57
2023/11/10 19:37:57;;;;;;;;;;;;;;;21.36;36.66;94481.53;10483354;28;2109;-58
2023/11/10 19:42:57;;;;;;;;;;;;;;;21.38;36.16;94483.88;10466251;28;4761;-59
2023/11/10 19:47:58;;;;;;;;;;;;;;;21.39;36.19;94482.78;10479135;28;1946;-58
2023/11/10 19:52:59;;;;;;;;;;;;;;;21.41;36.18;94480.63;10480337;28;1433;-59
2023/11/10 19:58:00;;;;;;;;;;;;;;;21.42;36.32;94469.75;10483348;28;1919;-58
2023/11/10 20:03:00;;;;;;;;;;;;;;;21.44;36.01;94469.44;10476687;28;1456;-57
2023/11/10 20:08:00;;;;;;;;;;;;;;;21.45;36.64;94473.66;10467872;28;1972;-58
2023/11/10 20:13:03;;;;;;;;;;;;;;;21.45;37.12;94468.38;10481339;28;1532;-58
2023/11/10 20:18:03;;;;;;;;;;;;;;;21.51;36.89;94477.69;10483046;28;1729;-57
2023/11/10 20:23:04;;;;;;;;;;;;;;;21.50;36.65;94473.47;10466960;28;2459;-59
2023/11/10 20:28:05;;;;;;;;;;;;;;;21.48;36.07;94473.03;10501575;28;1909;-59
2023/11/10 20:33:05;;;;;;;;;;;;;;;21.49;36.63;94470.09;10465157;28;1746;-59
2023/11/10 20:38:05;;;;;;;;;;;;;;;21.48;36.07;94457.19;10465639;28;1671;-60
2023/11/10 20:43:05;;;;;;;;;;;;;;;21.46;36.09;94446.97;10483057;28;4825;-59
2023/11/10 20:48:06;;;;;;;;;;;;;;;21.53;36.18;94442.03;10481224;28;1922;-59
2023/11/10 20:53:07;;;;;;;;;;;;;;;21.50;36.39;94439.22;10466078;28;1575;-58
2023/11/10 20:58:09;;;;;;;;;;;;;;;21.52;36.60;94435.19;10474026;28;2556;-59
2023/11/10 21:03:10;;;;;;;;;;;;;;;21.52;36.07;94434.41;10455074;28;2702;-58
2023/11/10 21:08:11;;;;;;;;;;;;;;;21.47;36.84;94430.09;10471690;28;3079;-59
2023/11/10 21:13:11;;;;;;;;;;;;;;;21.45;36.07;94426.94;10472786;28;2604;-59
2023/11/10 21:18:12;;;;;;;;;;;;;;;21.36;36.36;94420.91;10481698;28;2631;-59
2023/11/10 21:23:14;;;;;;;;;;;;;;;21.32;36.70;94416.56;10477610;28;2601;-59
2023/11/10 21:28:15;;;;;;;;;;;;;;;21.25;36.85;94405.69;10476389;28;2599;-59
2023/11/10 21:33:15;;;;;;;;;;;;;;;21.18;36.77;94405.41;10480626;28;2580;-58
2023/11/10 21:38:16;;;;;;;;;;;;;;;21.13;36.55;94395.78;10483605;28;2620;-61
2023/11/10 21:43:16;;;;;;;;;;;;;;;21.05;37.15;94397.34;10477590;28;4816;-60
2023/11/10 21:48:17;;;;;;;;;;;;;;;20.98;37.48;94381.16;10472640;28;2698;-60
2023/11/10 21:53:18;;;;;;;;;;;;;;;20.94;37.77;94380.22;10480173;28;2530;-60
2023/11/10 21:58:19;;;;;;;;;;;;;;;20.92;37.85;94373.72;10479102;28;2609;-60
2023/11/10 22:03:20;;;;;;;;;;;;;;;20.89;37.72;94366.44;10476960;28;2644;-60
2023/11/10 22:08:20;;;;;;;;;;;;;;;20.84;38.05;94359.47;10474817;28;2617;-60
2023/11/10 22:13:21;;;;;;;;;;;;;;;20.78;39.16;94359.91;10484689;28;2632;-60
2023/11/10 22:18:21;;;;;;;;;;;;;;;20.74;39.09;94356.34;10475961;28;2722;-60
2023/11/10 22:23:21;;;;;;;;;;;;;;;20.73;39.05;94349.53;10484886;28;2753;-60
2023/11/10 22:28:22;;;;;;;;;;;;;;;20.69;39.12;94338.84;10452979;28;2726;-60
2023/11/10 22:33:22;;;;;;;;;;;;;;;20.68;38.95;94331.25;10467456;28;2577;-60
2023/11/10 22:38:22;;;;;;;;;;;;;;;20.63;39.64;94334.03;10475984;28;2607;-60
2023/11/10 22:43:24;;;;;;;;;;;;;;;20.59;39.15;94325.97;10473727;28;4832;-60
2023/11/10 22:48:24;;;;;;;;;;;;;;;20.58;39.02;94324.44;10464115;28;2648;-60
2023/11/10 22:53:25;;;;;;;;;;;;;;;20.54;39.33;94326.13;10447445;28;2647;-60
2023/11/10 22:58:25;;;;;;;;;;;;;;;20.51;39.01;94318.81;10456419;28;2688;-60
2023/11/10 23:03:25;;;;;;;;;;;;;;;20.46;39.43;94316.34;10455727;28;2541;-60
2023/11/10 23:08:28;;;;;;;;;;;;;;;20.44;39.53;94313.25;10475540;28;2684;-60
2023/11/10 23:13:29;;;;;;;;;;;;;;;20.43;39.13;94309.06;10462698;28;2612;-60
2023/11/10 23:18:29;;;;;;;;;;;;;;;20.38;38.98;94301.28;10466584;28;2708;-60
2023/11/10 23:23:29;;;;;;;;;;;;;;;20.36;39.10;94297.44;10479078;28;2633;-60
2023/11/10 23:28:30;;;;;;;;;;;;;;;20.33;38.94;94296.19;10476315;28;2629;-60
2023/11/10 23:33:30;;;;;;;;;;;;;;;20.31;39.16;94285.19;10479292;28;2540;-60
2023/11/10 23:38:30;;;;;;;;;;;;;;;20.28;38.71;94285.78;10478666;28;2567;-60
2023/11/10 23:43:31;;;;;;;;;;;;;;;20.27;38.93;94289.53;10478001;28;5938;-59
2023/11/10 23:48:31;;;;;;;;;;;;;;;20.23;38.94;94281.47;10459706;28;2577;-60
2023/11/10 23:53:32;;;;;;;;;;;;;;;20.21;38.82;94282.84;10473293;28;2597;-60
2023/11/10 23:58:34;;;;;;;;;;;;;;;20.19;38.60;94274.47;10477915;28;2644;-61
